Time;durP1;ratioP1;P1;durP2;ratioP2;P2;SDS_P1;SDS_P2;PMS_P1;PMS_P2;Temp;Humidity;BMP_temperature;BMP_pressure;BME280_temperature;BME280_humidity;BME280_pressure;Samples;Min_cycle;Max_cycle;Signal;HPM_P1;HPM_P2
2023/05/17 00:01:16;;;;;;;0.38;0.30;;;;;;;;;;5074413;28;20048;-75
2023/05/17 00:03:41;;;;;;;0.10;0.10;;;;;;;;;;5074436;28;20534;-75
2023/05/17 00:06:07;;;;;;;1.20;0.20;;;;;;;;;;5074072;28;20037;-75
2023/05/17 00:08:32;;;;;;;0.10;0.10;;;;;;;;;;5074433;28;20106;-76
2023/05/17 00:10:58;;;;;;;0.35;0.25;;;;;;;;;;5074244;28;20044;-75
2023/05/17 00:13:23;;;;;;;0.10;0.10;;;;;;;;;;5074126;28;20067;-75
2023/05/17 00:15:48;;;;;;;0.13;0.13;;;;;;;;;;5074132;28;20066;-75
2023/05/17 00:18:14;;;;;;;5.97;1.17;;;;;;;;;;5074153;28;20472;-76
2023/05/17 00:20:39;;;;;;;0.40;0.40;;;;;;;;;;5073989;28;20029;-75
2023/05/17 00:23:04;;;;;;;0.20;0.20;;;;;;;;;;5074234;28;20482;-76
2023/05/17 00:25:30;;;;;;;0.77;0.47;;;;;;;;;;5074068;28;20483;-76
2023/05/17 00:27:55;;;;;;;0.10;0.10;;;;;;;;;;5073977;28;20052;-75
2023/05/17 00:30:21;;;;;;;0.30;0.25;;;;;;;;;;5074052;28;20475;-75
2023/05/17 00:32:47;;;;;;;0.10;0.10;;;;;;;;;;5073893;28;20449;-75
2023/05/17 00:35:12;;;;;;;0.73;0.73;;;;;;;;;;5055896;28;20123;-75
2023/05/17 00:37:38;;;;;;;0.10;0.10;;;;;;;;;;5055688;28;20170;-75
2023/05/17 00:40:04;;;;;;;0.22;0.22;;;;;;;;;;5073692;28;20490;-75
2023/05/17 00:42:29;;;;;;;0.10;0.10;;;;;;;;;;5073927;28;20395;-75
2023/05/17 00:44:55;;;;;;;0.10;0.10;;;;;;;;;;5073614;28;20043;-75
2023/05/17 00:47:20;;;;;;;0.10;0.10;;;;;;;;;;5055762;28;20036;-75
2023/05/17 00:49:46;;;;;;;0.10;0.10;;;;;;;;;;5073588;28;20491;-89
2023/05/17 00:52:11;;;;;;;0.10;0.10;;;;;;;;;;5073071;28;20086;-88
2023/05/17 00:54:38;;;;;;;0.10;0.10;;;;;;;;;;5055759;28;20074;-82
2023/05/17 00:57:04;;;;;;;0.10;0.10;;;;;;;;;;5073744;28;20456;-82
2023/05/17 00:59:32;;;;;;;0.80;0.57;;;;;;;;;;5055682;28;20038;-81
2023/05/17 01:01:58;;;;;;;0.10;0.10;;;;;;;;;;5073524;28;20115;-76
2023/05/17 01:04:23;;;;;;;0.10;0.10;;;;;;;;;;5073414;28;20071;-77
2023/05/17 01:06:49;;;;;;;0.10;0.10;;;;;;;;;;5073347;28;20026;-77
2023/05/17 01:09:15;;;;;;;0.15;0.15;;;;;;;;;;5037723;28;20502;-76
2023/05/17 01:11:40;;;;;;;0.10;0.10;;;;;;;;;;5055770;28;20047;-79
2023/05/17 01:14:22;;;;;;;0.32;0.20;;;;;;;;;;5038844;28;20039;-80
2023/05/17 01:16:50;;;;;;;0.10;0.10;;;;;;;;;;5056037;28;20040;-87
2023/05/17 01:19:31;;;;;;;0.10;0.10;;;;;;;;;;5055115;28;20404;-83
2023/05/17 01:22:14;;;;;;;0.20;0.20;;;;;;;;;;5057082;28;20113;-87
2023/05/17 01:24:49;;;;;;;1.85;0.68;;;;;;;;;;5072022;28;20383;-85
2023/05/17 01:27:15;;;;;;;0.10;0.10;;;;;;;;;;5073176;28;20098;-85
2023/05/17 01:29:42;;;;;;;2.28;0.77;;;;;;;;;;5072932;28;20020;-77
2023/05/17 01:32:07;;;;;;;0.20;0.20;;;;;;;;;;5054884;28;20043;-77
2023/05/17 01:34:33;;;;;;;0.55;0.55;;;;;;;;;;5073003;28;20051;-76
2023/05/17 01:36:59;;;;;;;0.80;0.63;;;;;;;;;;5072920;28;20116;-76
2023/05/17 01:39:24;;;;;;;6.78;1.10;;;;;;;;;;5072845;28;20120;-76
2023/05/17 01:41:57;;;;;;;2.85;0.70;;;;;;;;;;5072877;28;20024;-76
2023/05/17 01:44:28;;;;;;;0.17;0.17;;;;;;;;;;5053691;28;20135;-76
2023/05/17 01:46:57;;;;;;;1.90;0.73;;;;;;;;;;5072791;28;20037;-76
2023/05/17 01:49:25;;;;;;;0.38;0.38;;;;;;;;;;5072602;28;20032;-77
2023/05/17 01:51:57;;;;;;;0.20;0.20;;;;;;;;;;5054703;28;20036;-78
2023/05/17 01:54:27;;;;;;;1.60;1.02;;;;;;;;;;5072749;28;20117;-79
2023/05/17 01:56:57;;;;;;;0.30;0.30;;;;;;;;;;5072174;28;20487;-78
2023/05/17 01:59:24;;;;;;;0.25;0.25;;;;;;;;;;5054654;28;20035;-78
2023/05/17 02:02:02;;;;;;;0.10;0.10;;;;;;;;;;5070167;28;20036;-79
2023/05/17 02:04:29;;;;;;;0.20;0.20;;;;;;;;;;5054805;28;20037;-78
2023/05/17 02:06:54;;;;;;;0.10;0.10;;;;;;;;;;5072606;28;20036;-79
2023/05/17 02:09:20;;;;;;;0.30;0.20;;;;;;;;;;5072238;28;20048;-80
2023/05/17 02:11:45;;;;;;;0.10;0.10;;;;;;;;;;5069707;28;20047;-79
2023/05/17 02:14:10;;;;;;;0.30;0.30;;;;;;;;;;5072591;28;20031;-80
2023/05/17 02:16:36;;;;;;;0.10;0.10;;;;;;;;;;5071196;28;20040;-78
2023/05/17 02:19:01;;;;;;;0.10;0.10;;;;;;;;;;5072474;28;20038;-80
2023/05/17 02:21:27;;;;;;;0.10;0.10;;;;;;;;;;5072032;28;20094;-80
2023/05/17 02:23:52;;;;;;;0.10;0.10;;;;;;;;;;5072450;28;20028;-80
2023/05/17 02:26:18;;;;;;;0.10;0.10;;;;;;;;;;5072056;28;20067;-81
2023/05/17 02:28:43;;;;;;;0.20;0.20;;;;;;;;;;5072129;28;20434;-81
2023/05/17 02:31:09;;;;;;;0.10;0.10;;;;;;;;;;5070766;28;20037;-80
2023/05/17 02:33:34;;;;;;;0.10;0.10;;;;;;;;;;5054487;28;20087;-80
2023/05/17 02:36:00;;;;;;;0.17;0.17;;;;;;;;;;5072614;28;20040;-79
2023/05/17 02:38:25;;;;;;;0.20;0.20;;;;;;;;;;5072191;28;20028;-79
2023/05/17 02:40:51;;;;;;;0.20;0.20;;;;;;;;;;5072013;28;20108;-80
2023/05/17 02:43:16;;;;;;;0.10;0.10;;;;;;;;;;5072111;28;20028;-81
2023/05/17 02:45:44;;;;;;;0.95;0.95;;;;;;;;;;5070966;28;20609;-79
2023/05/17 02:48:11;;;;;;;0.20;0.20;;;;;;;;;;5071975;28;20040;-76
2023/05/17 02:50:37;;;;;;;0.10;0.10;;;;;;;;;;5070916;28;20483;-76
2023/05/17 02:53:02;;;;;;;0.10;0.10;;;;;;;;;;5070639;28;20079;-77
2023/05/17 02:55:28;;;;;;;0.13;0.13;;;;;;;;;;5070536;28;20040;-76
2023/05/17 02:57:53;;;;;;;0.13;0.13;;;;;;;;;;5070629;28;20395;-75
2023/05/17 03:00:20;;;;;;;0.10;0.10;;;;;;;;;;5069379;28;20064;-81
2023/05/17 03:02:45;;;;;;;0.10;0.10;;;;;;;;;;5038280;28;20063;-76
2023/05/17 03:05:11;;;;;;;0.20;0.20;;;;;;;;;;5050112;28;20037;-76
2023/05/17 03:07:41;;;;;;;0.20;0.20;;;;;;;;;;5049691;28;20064;-76
2023/05/17 03:10:06;;;;;;;0.10;0.10;;;;;;;;;;5066971;28;20067;-76
2023/05/17 03:12:37;;;;;;;0.10;0.10;;;;;;;;;;5049731;28;20491;-75
2023/05/17 03:15:03;;;;;;;0.10;0.10;;;;;;;;;;5068055;28;20064;-75
2023/05/17 03:17:28;;;;;;;0.10;0.10;;;;;;;;;;5049921;28;20127;-76
2023/05/17 03:19:54;;;;;;;0.10;0.10;;;;;;;;;;5067674;28;20400;-77
2023/05/17 03:22:19;;;;;;;0.10;0.10;;;;;;;;;;5066045;28;20795;-78
2023/05/17 03:24:45;;;;;;;0.20;0.20;;;;;;;;;;5048545;28;20845;-77
2023/05/17 03:27:10;;;;;;;0.10;0.10;;;;;;;;;;5050256;28;20440;-82
2023/05/17 03:29:36;;;;;;;0.20;0.20;;;;;;;;;;5065812;28;20458;-81
2023/05/17 03:32:01;;;;;;;0.10;0.10;;;;;;;;;;5068395;28;20032;-76
2023/05/17 03:34:27;;;;;;;0.10;0.10;;;;;;;;;;5052691;28;20029;-77
2023/05/17 03:36:52;;;;;;;0.20;0.20;;;;;;;;;;5052679;28;20047;-77
2023/05/17 03:39:18;;;;;;;0.13;0.13;;;;;;;;;;5052581;28;20025;-80
2023/05/17 03:41:43;;;;;;;0.20;0.20;;;;;;;;;;5068515;28;20127;-83
2023/05/17 03:44:09;;;;;;;0.10;0.10;;;;;;;;;;5064973;28;20056;-87
2023/05/17 03:46:35;;;;;;;0.15;0.15;;;;;;;;;;5060522;28;20028;-83
2023/05/17 03:49:01;;;;;;;0.10;0.10;;;;;;;;;;5066764;28;20143;-87
2023/05/17 03:51:27;;;;;;;0.20;0.20;;;;;;;;;;5047326;28;20036;-86
2023/05/17 03:53:56;;;;;;;0.20;0.20;;;;;;;;;;5050565;28;20376;-77
2023/05/17 03:56:22;;;;;;;0.30;0.30;;;;;;;;;;5050375;28;20043;-85
2023/05/17 03:58:47;;;;;;;0.10;0.10;;;;;;;;;;5032410;28;20021;-85
2023/05/17 04:01:14;;;;;;;0.20;0.20;;;;;;;;;;5043135;28;20468;-79
2023/05/17 04:03:39;;;;;;;0.10;0.10;;;;;;;;;;5039383;28;20062;-77
2023/05/17 04:06:05;;;;;;;0.10;0.10;;;;;;;;;;5051230;28;20121;-75
2023/05/17 04:08:32;;;;;;;0.10;0.10;;;;;;;;;;5051651;28;20044;-76
2023/05/17 04:10:58;;;;;;;0.10;0.10;;;;;;;;;;5052058;28;20487;-80
2023/05/17 04:13:23;;;;;;;0.10;0.10;;;;;;;;;;5054381;28;20039;-84
2023/05/17 04:15:49;;;;;;;0.15;0.15;;;;;;;;;;5052043;28;20114;-82
2023/05/17 04:18:15;;;;;;;0.10;0.10;;;;;;;;;;5051708;28;20055;-80
2023/05/17 04:20:41;;;;;;;0.20;0.20;;;;;;;;;;5051982;28;20546;-84
2023/05/17 04:23:07;;;;;;;0.20;0.20;;;;;;;;;;5070279;28;20040;-75
2023/05/17 04:25:34;;;;;;;0.20;0.20;;;;;;;;;;5051924;28;20115;-75
2023/05/17 04:28:00;;;;;;;0.20;0.20;;;;;;;;;;5051887;28;20037;-77
2023/05/17 04:30:26;;;;;;;0.80;0.80;;;;;;;;;;5051585;28;20094;-76
2023/05/17 04:32:51;;;;;;;0.20;0.20;;;;;;;;;;5069819;28;20034;-81
2023/05/17 04:35:17;;;;;;;1.73;1.63;;;;;;;;;;5051538;28;20060;-77
2023/05/17 04:37:46;;;;;;;0.10;0.10;;;;;;;;;;5064953;28;20123;-76
2023/05/17 04:40:20;;;;;;;0.10;0.10;;;;;;;;;;5051588;28;20131;-75
2023/05/17 04:42:46;;;;;;;0.20;0.20;;;;;;;;;;5051953;28;20115;-78
2023/05/17 04:45:12;;;;;;;0.20;0.20;;;;;;;;;;5051805;28;20032;-79
2023/05/17 04:47:37;;;;;;;0.20;0.20;;;;;;;;;;5051802;28;20035;-77
2023/05/17 04:50:03;;;;;;;0.10;0.10;;;;;;;;;;5051427;28;20127;-77
2023/05/17 04:52:29;;;;;;;0.15;0.15;;;;;;;;;;5052245;28;20036;-78
2023/05/17 04:54:54;;;;;;;0.10;0.10;;;;;;;;;;5051089;28;20078;-80
2023/05/17 04:57:21;;;;;;;0.20;0.20;;;;;;;;;;5050047;28;20028;-78
2023/05/17 04:59:52;;;;;;;0.10;0.10;;;;;;;;;;5050475;28;20037;-78
2023/05/17 05:02:17;;;;;;;0.15;0.15;;;;;;;;;;5054723;28;20020;-77
2023/05/17 05:04:43;;;;;;;0.10;0.10;;;;;;;;;;5061071;28;20441;-76
2023/05/17 05:07:11;;;;;;;0.30;0.30;;;;;;;;;;5044622;28;20039;-73
2023/05/17 05:09:36;;;;;;;0.10;0.10;;;;;;;;;;5048976;28;20402;-73
2023/05/17 05:12:02;;;;;;;0.20;0.20;;;;;;;;;;5058464;28;20273;-73
2023/05/17 05:14:29;;;;;;;0.10;0.10;;;;;;;;;;5059281;28;20103;-73
2023/05/17 05:16:55;;;;;;;0.10;0.10;;;;;;;;;;5053168;28;20033;-73
2023/05/17 05:19:21;;;;;;;0.10;0.10;;;;;;;;;;5051310;28;20535;-73
2023/05/17 05:21:50;;;;;;;0.20;0.20;;;;;;;;;;5046890;28;20024;-74
2023/05/17 05:24:15;;;;;;;0.20;0.20;;;;;;;;;;5048940;28;20032;-73
2023/05/17 05:26:41;;;;;;;0.20;0.20;;;;;;;;;;5058650;28;20032;-73
2023/05/17 05:29:08;;;;;;;0.20;0.20;;;;;;;;;;5057068;28;20051;-73
2023/05/17 05:31:34;;;;;;;0.17;0.17;;;;;;;;;;5050681;28;20029;-75
2023/05/17 05:34:01;;;;;;;0.20;0.20;;;;;;;;;;5050015;28;20029;-73
2023/05/17 05:36:27;;;;;;;0.20;0.20;;;;;;;;;;5048855;28;20044;-73
2023/05/17 05:38:53;;;;;;;0.10;0.10;;;;;;;;;;5033887;28;20066;-74
2023/05/17 05:41:20;;;;;;;0.20;0.20;;;;;;;;;;5062338;28;20036;-73
2023/05/17 05:43:46;;;;;;;0.13;0.13;;;;;;;;;;5066856;28;20036;-73
2023/05/17 05:46:13;;;;;;;0.17;0.17;;;;;;;;;;5059995;28;20130;-74
2023/05/17 05:48:40;;;;;;;0.20;0.20;;;;;;;;;;5050598;28;20329;-74
2023/05/17 05:51:07;;;;;;;0.28;0.25;;;;;;;;;;5050463;28;20116;-75
2023/05/17 05:53:32;;;;;;;0.10;0.10;;;;;;;;;;5050539;28;20131;-74
2023/05/17 05:55:58;;;;;;;0.20;0.20;;;;;;;;;;5049497;28;20029;-74
2023/05/17 05:58:24;;;;;;;0.25;0.25;;;;;;;;;;5033569;28;20440;-75
2023/05/17 06:00:50;;;;;;;0.95;0.60;;;;;;;;;;5050503;28;20171;-74
2023/05/17 06:03:16;;;;;;;0.15;0.15;;;;;;;;;;5068034;28;20115;-74
2023/05/17 06:05:41;;;;;;;0.32;0.32;;;;;;;;;;5067712;28;20506;-74
2023/05/17 06:08:06;;;;;;;0.15;0.15;;;;;;;;;;5068225;28;20040;-75
2023/05/17 06:10:32;;;;;;;0.20;0.20;;;;;;;;;;5067563;28;20128;-73
2023/05/17 06:12:57;;;;;;;0.10;0.10;;;;;;;;;;5067548;28;20032;-74
2023/05/17 06:15:23;;;;;;;0.20;0.20;;;;;;;;;;5067096;28;20032;-73
2023/05/17 06:17:48;;;;;;;0.20;0.20;;;;;;;;;;5056701;28;20040;-73
2023/05/17 06:20:15;;;;;;;0.10;0.10;;;;;;;;;;5049289;28;20396;-73
2023/05/17 06:22:41;;;;;;;0.17;0.17;;;;;;;;;;5067992;28;20047;-75
2023/05/17 06:25:07;;;;;;;0.30;0.30;;;;;;;;;;5078903;28;20028;-74
2023/05/17 06:27:35;;;;;;;0.32;0.32;;;;;;;;;;5067364;28;20042;-74
2023/05/17 06:30:00;;;;;;;5.63;0.73;;;;;;;;;;5049470;28;20189;-73
2023/05/17 06:32:26;;;;;;;0.85;0.85;;;;;;;;;;5067750;28;20458;-74
2023/05/17 06:34:52;;;;;;;0.88;0.73;;;;;;;;;;5068141;28;20472;-74
2023/05/17 06:37:17;;;;;;;0.20;0.20;;;;;;;;;;5049566;28;20187;-74
2023/05/17 06:39:46;;;;;;;0.30;0.30;;;;;;;;;;5067495;28;20035;-74
2023/05/17 06:42:12;;;;;;;0.20;0.20;;;;;;;;;;5067302;28;20028;-74
2023/05/17 06:44:37;;;;;;;0.40;0.40;;;;;;;;;;5067715;28;20383;-73
2023/05/17 06:47:02;;;;;;;0.22;0.22;;;;;;;;;;5049260;28;20041;-74
2023/05/17 06:49:28;;;;;;;0.47;0.47;;;;;;;;;;5047539;28;20030;-74
2023/05/17 06:51:56;;;;;;;0.20;0.20;;;;;;;;;;5047463;28;20033;-73
2023/05/17 06:54:21;;;;;;;0.10;0.10;;;;;;;;;;5067253;28;20036;-74
2023/05/17 06:56:47;;;;;;;0.35;0.32;;;;;;;;;;5057824;28;20029;-73
2023/05/17 06:59:12;;;;;;;0.35;0.35;;;;;;;;;;5078835;28;20128;-73
2023/05/17 07:01:38;;;;;;;0.20;0.20;;;;;;;;;;5063006;28;20044;-73
2023/05/17 07:04:04;;;;;;;0.52;0.50;;;;;;;;;;5049016;28;20036;-73
2023/05/17 07:06:30;;;;;;;0.25;0.25;;;;;;;;;;5067287;28;20033;-74
2023/05/17 07:08:55;;;;;;;0.28;0.28;;;;;;;;;;5069842;28;20054;-74
2023/05/17 07:11:20;;;;;;;0.20;0.20;;;;;;;;;;5081936;28;20033;-73
2023/05/17 07:13:46;;;;;;;0.30;0.30;;;;;;;;;;5055063;28;20029;-73
2023/05/17 07:16:11;;;;;;;0.30;0.30;;;;;;;;;;5078420;28;20032;-73
2023/05/17 07:18:37;;;;;;;0.40;0.40;;;;;;;;;;5070597;28;20028;-73
2023/05/17 07:21:02;;;;;;;0.10;0.10;;;;;;;;;;5069512;28;20044;-73
2023/05/17 07:23:28;;;;;;;0.10;0.10;;;;;;;;;;5060468;28;20024;-75
2023/05/17 07:25:53;;;;;;;6.53;1.75;;;;;;;;;;5073632;28;20064;-75
2023/05/17 07:28:18;;;;;;;0.50;0.43;;;;;;;;;;5068118;28;20028;-75
2023/05/17 07:30:44;;;;;;;1.10;1.00;;;;;;;;;;5062430;28;20060;-74
2023/05/17 07:33:10;;;;;;;1.17;1.08;;;;;;;;;;5070141;28;20074;-75
2023/05/17 07:35:35;;;;;;;0.57;0.57;;;;;;;;;;5070897;28;20471;-73
2023/05/17 07:38:01;;;;;;;0.60;0.52;;;;;;;;;;5069463;28;20036;-73
2023/05/17 07:40:26;;;;;;;1.08;0.80;;;;;;;;;;5069495;28;20078;-73
2023/05/17 07:42:52;;;;;;;0.88;0.82;;;;;;;;;;5070691;28;20446;-74
2023/05/17 07:45:17;;;;;;;1.25;0.90;;;;;;;;;;5069427;28;20043;-73
2023/05/17 07:47:43;;;;;;;1.60;1.25;;;;;;;;;;5071296;28;20039;-74
2023/05/17 07:50:08;;;;;;;0.10;0.10;;;;;;;;;;5050356;28;20425;-74
2023/05/17 07:52:34;;;;;;;0.65;0.65;;;;;;;;;;5067244;28;20032;-74
2023/05/17 07:54:59;;;;;;;0.38;0.38;;;;;;;;;;5069419;28;20471;-73
2023/05/17 07:57:26;;;;;;;0.40;0.40;;;;;;;;;;5067858;28;20833;-73
2023/05/17 07:59:51;;;;;;;1.38;0.88;;;;;;;;;;5070160;28;20392;-73
2023/05/17 08:02:16;;;;;;;0.50;0.50;;;;;;;;;;5069882;28;20037;-73
2023/05/17 08:04:42;;;;;;;0.50;0.50;;;;;;;;;;5069977;28;20040;-73
2023/05/17 08:07:07;;;;;;;1.35;0.95;;;;;;;;;;5069818;28;20127;-73
2023/05/17 08:09:33;;;;;;;1.70;1.00;;;;;;;;;;5061765;28;20422;-75
2023/05/17 08:11:59;;;;;;;0.30;0.30;;;;;;;;;;5060563;28;20025;-74
2023/05/17 08:14:25;;;;;;;17.25;1.42;;;;;;;;;;5070189;28;20035;-74
2023/05/17 08:16:51;;;;;;;2.03;1.25;;;;;;;;;;5068660;28;20444;-73
2023/05/17 08:19:16;;;;;;;1.05;0.82;;;;;;;;;;5067314;28;20099;-75
2023/05/17 08:21:42;;;;;;;0.85;0.55;;;;;;;;;;5051150;28;20070;-76
2023/05/17 08:24:08;;;;;;;1.45;0.68;;;;;;;;;;5068125;28;20438;-76
2023/05/17 08:26:33;;;;;;;6.07;0.75;;;;;;;;;;5052257;28;20041;-75
2023/05/17 08:29:01;;;;;;;0.43;0.43;;;;;;;;;;5055110;28;20586;-72
2023/05/17 08:31:27;;;;;;;1.02;0.77;;;;;;;;;;5067110;28;20108;-75
2023/05/17 08:33:53;;;;;;;0.70;0.70;;;;;;;;;;5063823;28;20116;-75
2023/05/17 08:36:19;;;;;;;0.20;0.20;;;;;;;;;;5063934;28;20052;-74
2023/05/17 08:38:45;;;;;;;0.15;0.15;;;;;;;;;;5034800;28;20043;-74
2023/05/17 08:41:11;;;;;;;0.40;0.40;;;;;;;;;;5069199;28;20119;-75
2023/05/17 08:43:37;;;;;;;0.40;0.40;;;;;;;;;;5054084;28;20382;-76
2023/05/17 08:46:03;;;;;;;2.88;0.65;;;;;;;;;;5067861;28;20028;-74
2023/05/17 08:48:29;;;;;;;0.20;0.20;;;;;;;;;;5069230;28;20530;-73
2023/05/17 08:50:56;;;;;;;2.35;0.93;;;;;;;;;;5069232;28;20236;-74
2023/05/17 08:53:22;;;;;;;0.28;0.28;;;;;;;;;;5069145;28;20095;-74
2023/05/17 08:55:49;;;;;;;0.30;0.30;;;;;;;;;;5063019;28;20430;-75
2023/05/17 08:58:18;;;;;;;0.52;0.43;;;;;;;;;;5067706;28;20036;-74
2023/05/17 09:00:45;;;;;;;0.20;0.20;;;;;;;;;;5067560;28;20028;-73
2023/05/17 09:03:14;;;;;;;4.13;1.10;;;;;;;;;;5065073;28;20029;-74
2023/05/17 09:05:39;;;;;;;0.75;0.63;;;;;;;;;;5071707;28;20131;-73
2023/05/17 09:08:05;;;;;;;0.20;0.20;;;;;;;;;;5077822;28;20120;-72
2023/05/17 09:10:30;;;;;;;2.75;0.47;;;;;;;;;;5080605;28;20448;-75
2023/05/17 09:12:56;;;;;;;0.20;0.20;;;;;;;;;;5088993;28;20042;-73
2023/05/17 09:15:22;;;;;;;0.50;0.30;;;;;;;;;;5089055;28;20047;-75
2023/05/17 09:17:52;;;;;;;0.85;0.28;;;;;;;;;;5075500;28;20562;-74
2023/05/17 09:20:22;;;;;;;3.28;0.38;;;;;;;;;;5067483;28;20036;-74
2023/05/17 09:22:48;;;;;;;1.45;0.55;;;;;;;;;;5048345;28;20104;-73
2023/05/17 09:25:17;;;;;;;0.52;0.30;;;;;;;;;;5068156;28;20534;-75
2023/05/17 09:27:43;;;;;;;0.45;0.30;;;;;;;;;;5074936;28;20039;-74
2023/05/17 09:30:09;;;;;;;2.50;0.40;;;;;;;;;;5043251;28;20388;-75
2023/05/17 09:32:34;;;;;;;6.47;0.50;;;;;;;;;;5073471;28;20063;-75
2023/05/17 09:35:01;;;;;;;2.83;0.40;;;;;;;;;;5070006;28;20110;-75
2023/05/17 09:37:29;;;;;;;3.10;0.55;;;;;;;;;;5067512;28;20029;-75
2023/05/17 09:39:55;;;;;;;0.47;0.35;;;;;;;;;;5066381;28;20024;-73
2023/05/17 09:42:25;;;;;;;0.20;0.20;;;;;;;;;;5065460;28;20036;-75
2023/05/17 09:44:56;;;;;;;0.22;0.22;;;;;;;;;;5067475;28;20027;-75
2023/05/17 09:47:28;;;;;;;0.47;0.30;;;;;;;;;;5066985;28;20457;-74
2023/05/17 09:49:55;;;;;;;0.25;0.25;;;;;;;;;;5067868;28;20171;-74
2023/05/17 09:52:20;;;;;;;1.10;0.40;;;;;;;;;;5066719;28;20047;-76
2023/05/17 09:54:56;;;;;;;0.22;0.22;;;;;;;;;;5067771;28;20029;-73
2023/05/17 09:57:22;;;;;;;0.63;0.50;;;;;;;;;;5070973;28;20033;-74
2023/05/17 09:59:48;;;;;;;0.60;0.38;;;;;;;;;;5074375;28;20073;-73
2023/05/17 10:02:18;;;;;;;0.22;0.22;;;;;;;;;;5033099;28;20032;-75
2023/05/17 10:04:45;;;;;;;0.30;0.30;;;;;;;;;;5067701;28;20027;-76
2023/05/17 10:07:10;;;;;;;0.20;0.20;;;;;;;;;;5068131;28;20020;-74
2023/05/17 10:09:36;;;;;;;3.08;0.35;;;;;;;;;;5067735;28;20481;-75
2023/05/17 10:12:02;;;;;;;2.95;1.20;;;;;;;;;;5040714;28;20040;-75
2023/05/17 10:14:31;;;;;;;0.20;0.20;;;;;;;;;;5065263;28;20086;-75
2023/05/17 10:16:56;;;;;;;1.45;0.43;;;;;;;;;;5062157;28;20037;-75
2023/05/17 10:19:23;;;;;;;0.30;0.30;;;;;;;;;;5058244;28;20108;-74
2023/05/17 10:21:49;;;;;;;0.20;0.20;;;;;;;;;;5058264;28;20357;-73
2023/05/17 10:24:15;;;;;;;0.30;0.30;;;;;;;;;;5059685;28;20131;-77
2023/05/17 10:26:41;;;;;;;0.20;0.20;;;;;;;;;;5058333;28;20191;-75
2023/05/17 10:29:06;;;;;;;0.22;0.22;;;;;;;;;;5055177;28;20021;-77
2023/05/17 10:31:33;;;;;;;1.17;0.85;;;;;;;;;;5062111;28;20482;-76
2023/05/17 10:34:02;;;;;;;0.57;0.40;;;;;;;;;;5062451;28;20044;-75
2023/05/17 10:36:28;;;;;;;0.20;0.20;;;;;;;;;;5058483;28;20072;-73
2023/05/17 10:38:54;;;;;;;0.15;0.15;;;;;;;;;;5058831;28;20044;-74
2023/05/17 10:41:23;;;;;;;0.13;0.13;;;;;;;;;;5063016;28;20422;-76
2023/05/17 10:43:48;;;;;;;;;;;;;;;;;;5045644;28;20095;-75
2023/05/17 10:46:14;;;;;;;0.20;0.20;;;;;;;;;;5053160;28;19921;-74
2023/05/17 10:48:40;;;;;;;0.30;0.30;;;;;;;;;;5033263;28;20299;-72
2023/05/17 10:51:06;;;;;;;0.20;0.20;;;;;;;;;;5051375;28;20036;-77
2023/05/17 10:53:32;;;;;;;0.30;0.30;;;;;;;;;;5066249;28;20426;-76
2023/05/17 10:55:57;;;;;;;0.20;0.20;;;;;;;;;;5070496;28;20029;-77
2023/05/17 10:58:25;;;;;;;0.60;0.30;;;;;;;;;;5070821;28;20032;-76
2023/05/17 11:00:53;;;;;;;0.20;0.20;;;;;;;;;;5072770;28;20765;-76
2023/05/17 11:03:18;;;;;;;0.20;0.20;;;;;;;;;;5079756;28;20064;-75
2023/05/17 11:06:02;;;;;;;0.20;0.20;;;;;;;;;;5070426;28;20071;-76
2023/05/17 11:08:28;;;;;;;0.20;0.20;;;;;;;;;;5070680;28;20131;-76
2023/05/17 11:11:09;;;;;;;0.20;0.20;;;;;;;;;;5080231;28;20435;-76
2023/05/17 11:13:42;;;;;;;0.20;0.20;;;;;;;;;;5075523;28;20440;-77
2023/05/17 11:16:07;;;;;;;0.77;0.35;;;;;;;;;;5059809;28;20123;-77
2023/05/17 11:18:52;;;;;;;0.30;0.30;;;;;;;;;;5078620;28;20122;-76
2023/05/17 11:21:18;;;;;;;0.60;0.30;;;;;;;;;;5065403;28;20040;-77
2023/05/17 11:23:44;;;;;;;0.30;0.30;;;;;;;;;;5052641;28;20047;-76
2023/05/17 11:26:20;;;;;;;0.20;0.20;;;;;;;;;;5052143;28;20037;-76
2023/05/17 11:28:45;;;;;;;0.20;0.20;;;;;;;;;;5070768;28;20047;-76
2023/05/17 11:31:11;;;;;;;0.20;0.20;;;;;;;;;;5066780;28;20032;-76
2023/05/17 11:33:46;;;;;;;0.35;0.35;;;;;;;;;;5019504;28;20036;-75
2023/05/17 11:36:19;;;;;;;0.25;0.22;;;;;;;;;;5061639;28;20036;-76
2023/05/17 11:39:11;;;;;;;0.20;0.20;;;;;;;;;;5042538;28;20120;-77
2023/05/17 11:41:40;;;;;;;0.20;0.20;;;;;;;;;;5065856;28;20056;-77
2023/05/17 11:44:06;;;;;;;0.20;0.20;;;;;;;;;;5050176;28;20391;-76
2023/05/17 11:46:31;;;;;;;0.30;0.20;;;;;;;;;;5063284;28;20044;-78
2023/05/17 11:48:57;;;;;;;0.35;0.35;;;;;;;;;;5053211;28;20032;-77
2023/05/17 11:51:23;;;;;;;0.20;0.20;;;;;;;;;;5078909;28;20069;-76
2023/05/17 11:53:48;;;;;;;0.20;0.20;;;;;;;;;;5044014;28;20027;-78
2023/05/17 11:56:15;;;;;;;0.22;0.22;;;;;;;;;;5069074;28;20082;-79
2023/05/17 11:58:41;;;;;;;0.28;0.28;;;;;;;;;;5070333;28;20405;-78
2023/05/17 12:01:07;;;;;;;0.40;0.40;;;;;;;;;;5058686;28;20537;-78
2023/05/17 12:03:33;;;;;;;0.50;0.30;;;;;;;;;;5057204;28;20116;-75
2023/05/17 12:06:05;;;;;;;0.20;0.20;;;;;;;;;;5051278;28;20448;-75
2023/05/17 12:08:33;;;;;;;0.30;0.30;;;;;;;;;;5066290;28;20060;-76
2023/05/17 12:10:58;;;;;;;0.55;0.55;;;;;;;;;;5066955;28;20094;-76
2023/05/17 12:13:26;;;;;;;0.30;0.30;;;;;;;;;;5069150;28;20037;-76
2023/05/17 12:15:55;;;;;;;0.28;0.28;;;;;;;;;;5064173;28;20032;-75
2023/05/17 12:18:21;;;;;;;0.30;0.30;;;;;;;;;;5068431;28;20033;-76
2023/05/17 12:20:56;;;;;;;0.30;0.30;;;;;;;;;;5068854;28;20101;-76
2023/05/17 12:23:25;;;;;;;0.22;0.22;;;;;;;;;;5069247;28;20082;-76
2023/05/17 12:25:51;;;;;;;;;;;;;;;;;;5070463;28;20032;-76
2023/05/17 12:28:21;;;;;;;0.30;0.30;;;;;;;;;;5069195;28;19958;-77
2023/05/17 12:30:51;;;;;;;0.20;0.20;;;;;;;;;;5069973;28;20075;-76
2023/05/17 12:33:17;;;;;;;0.20;0.20;;;;;;;;;;5069461;28;20028;-76
2023/05/17 12:35:42;;;;;;;0.22;0.22;;;;;;;;;;5051839;28;20040;-75
2023/05/17 12:38:07;;;;;;;0.30;0.30;;;;;;;;;;5074475;28;20032;-76
2023/05/17 12:40:33;;;;;;;0.20;0.20;;;;;;;;;;5082965;28;20038;-76
2023/05/17 12:43:02;;;;;;;0.55;0.40;;;;;;;;;;5076344;28;20024;-76
2023/05/17 12:45:27;;;;;;;0.20;0.20;;;;;;;;;;5050615;28;20038;-77
2023/05/17 12:47:54;;;;;;;0.45;0.20;;;;;;;;;;5068061;28;20077;-75
2023/05/17 12:50:29;;;;;;;0.30;0.30;;;;;;;;;;5069341;28;20358;-75
2023/05/17 12:52:55;;;;;;;0.30;0.30;;;;;;;;;;5068382;28;20068;-75
2023/05/17 12:55:20;;;;;;;0.38;0.32;;;;;;;;;;5068881;28;20064;-76
2023/05/17 12:57:51;;;;;;;0.30;0.30;;;;;;;;;;5050519;28;20035;-75
2023/05/17 13:00:17;;;;;;;0.20;0.20;;;;;;;;;;5073065;28;20124;-75
2023/05/17 13:02:43;;;;;;;0.28;0.20;;;;;;;;;;5055535;28;20111;-76
2023/05/17 13:05:15;;;;;;;1.48;0.30;;;;;;;;;;5050309;28;20060;-76
2023/05/17 13:07:41;;;;;;;0.98;0.85;;;;;;;;;;5049005;28;20438;-75
2023/05/17 13:10:18;;;;;;;1.10;0.50;;;;;;;;;;5067801;28;20036;-73
2023/05/17 13:12:53;;;;;;;0.22;0.22;;;;;;;;;;5069193;28;20035;-73
2023/05/17 13:15:18;;;;;;;0.30;0.30;;;;;;;;;;5069244;28;20054;-76
2023/05/17 13:17:48;;;;;;;0.75;0.30;;;;;;;;;;5071756;28;20032;-74
2023/05/17 13:20:14;;;;;;;1.48;0.45;;;;;;;;;;5050246;28;20039;-74
2023/05/17 13:22:44;;;;;;;0.20;0.20;;;;;;;;;;5033850;28;20094;-72
2023/05/17 13:25:10;;;;;;;1.10;0.50;;;;;;;;;;5065454;28;20429;-78
2023/05/17 13:27:35;;;;;;;2.97;0.40;;;;;;;;;;5057792;28;20033;-75
2023/05/17 13:30:01;;;;;;;3.85;0.22;;;;;;;;;;5060833;28;20032;-76
2023/05/17 13:32:26;;;;;;;0.60;0.30;;;;;;;;;;5060453;28;20084;-75
2023/05/17 13:34:51;;;;;;;0.57;0.43;;;;;;;;;;5056162;28;20496;-73
2023/05/17 13:37:17;;;;;;;0.30;0.30;;;;;;;;;;5020195;28;20056;-74
2023/05/17 13:39:42;;;;;;;0.98;0.40;;;;;;;;;;5067550;28;20636;-74
2023/05/17 13:42:09;;;;;;;0.22;0.22;;;;;;;;;;5064246;28;20032;-74
2023/05/17 13:44:34;;;;;;;3.92;0.52;;;;;;;;;;5049098;28;20556;-75
2023/05/17 13:47:00;;;;;;;1.02;0.28;;;;;;;;;;5048795;28;20487;-75
2023/05/17 13:49:27;;;;;;;0.30;0.30;;;;;;;;;;5048839;28;20098;-75
2023/05/17 13:51:52;;;;;;;0.20;0.20;;;;;;;;;;5065277;28;20144;-76
2023/05/17 13:54:19;;;;;;;0.38;0.38;;;;;;;;;;5058755;28;20058;-77
2023/05/17 13:56:45;;;;;;;0.43;0.32;;;;;;;;;;5065028;28;20495;-75
2023/05/17 13:59:10;;;;;;;0.30;0.30;;;;;;;;;;5050666;28;20047;-75
2023/05/17 14:01:36;;;;;;;1.30;0.47;;;;;;;;;;5068932;28;20029;-75
2023/05/17 14:04:02;;;;;;;0.50;0.32;;;;;;;;;;5050583;28;20036;-76
2023/05/17 14:06:27;;;;;;;0.65;0.30;;;;;;;;;;5067039;28;20039;-75
2023/05/17 14:08:53;;;;;;;0.45;0.40;;;;;;;;;;5067764;28;20040;-75
2023/05/17 14:11:18;;;;;;;0.82;0.40;;;;;;;;;;5067573;28;20047;-75
2023/05/17 14:13:44;;;;;;;0.45;0.28;;;;;;;;;;5067542;28;20028;-75
2023/05/17 14:16:09;;;;;;;1.15;0.30;;;;;;;;;;5067872;28;20589;-74
2023/05/17 14:18:35;;;;;;;0.47;0.30;;;;;;;;;;5067878;28;20027;-74
2023/05/17 14:21:02;;;;;;;5.80;0.57;;;;;;;;;;5050290;28;20036;-75
2023/05/17 14:23:27;;;;;;;1.38;0.70;;;;;;;;;;5047357;28;20122;-76
2023/05/17 14:25:53;;;;;;;0.77;0.52;;;;;;;;;;5066486;28;20036;-76
2023/05/17 14:28:18;;;;;;;4.28;0.30;;;;;;;;;;5045830;28;20076;-75
2023/05/17 14:30:44;;;;;;;0.40;0.40;;;;;;;;;;5048363;28;20035;-76
2023/05/17 14:33:10;;;;;;;3.78;0.88;;;;;;;;;;5046350;28;20516;-74
2023/05/17 14:35:35;;;;;;;1.55;0.32;;;;;;;;;;5029595;28;20090;-75
2023/05/17 14:38:01;;;;;;;0.28;0.28;;;;;;;;;;5050983;28;20097;-75
2023/05/17 14:40:26;;;;;;;0.40;0.30;;;;;;;;;;5068002;28;20028;-75